Time;durP1;ratioP1;P1;durP2;ratioP2;P2;SDS_P1;SDS_P2;PMS_P1;PMS_P2;Temp;Humidity;BMP_temperature;BMP_pressure;BME280_temperature;BME280_humidity;BME280_pressure;Samples;Min_cycle;Max_cycle;Signal;HPM_P1;HPM_P2
2023/10/23 00:00:38;;;;;;;8.40;7.33;;;10.40;99.90;;;;;;5046323;28;40814;-77
2023/10/23 00:03:04;;;;;;;7.27;6.57;;;10.30;99.90;;;;;;5044219;28;37789;-77
2023/10/23 00:05:31;;;;;;;9.73;7.30;;;10.30;99.90;;;;;;5045511;28;37601;-78
2023/10/23 00:07:58;;;;;;;7.80;7.00;;;10.20;99.90;;;;;;5041672;28;37226;-77
2023/10/23 00:10:24;;;;;;;7.27;6.33;;;10.20;99.90;;;;;;5036792;28;36334;-77
2023/10/23 00:12:50;;;;;;;7.50;6.60;;;10.20;99.90;;;;;;5043881;28;37658;-77
2023/10/23 00:15:16;;;;;;;7.60;6.80;;;10.10;99.90;;;;;;5046768;28;37950;-77
2023/10/23 00:17:42;;;;;;;8.50;6.73;;;10.10;99.90;;;;;;5057672;28;37147;-77
2023/10/23 00:20:09;;;;;;;8.13;6.60;;;10.10;99.90;;;;;;5042783;28;37458;-75
2023/10/23 00:22:35;;;;;;;8.17;6.87;;;10.00;99.90;;;;;;5039267;28;37381;-76
2023/10/23 00:25:01;;;;;;;9.97;7.37;;;10.00;99.90;;;;;;5044558;28;37796;-75
2023/10/23 00:27:27;;;;;;;9.43;6.57;;;9.90;99.90;;;;;;5044083;28;35810;-77
2023/10/23 00:29:53;;;;;;;8.63;6.67;;;9.90;99.90;;;;;;5044749;28;37832;-76
2023/10/23 00:32:19;;;;;;;8.67;6.90;;;9.90;99.90;;;;;;5042349;28;37825;-76
2023/10/23 00:34:45;;;;;;;9.30;6.97;;;9.90;99.90;;;;;;5050557;28;36922;-76
2023/10/23 00:37:12;;;;;;;7.00;6.30;;;9.80;99.90;;;;;;5042312;28;37010;-76
2023/10/23 00:39:38;;;;;;;10.00;6.77;;;9.70;99.90;;;;;;5059842;28;39666;-76
2023/10/23 00:42:05;;;;;;;9.20;6.70;;;9.80;99.90;;;;;;5042567;28;38969;-75
2023/10/23 00:44:31;;;;;;;7.90;6.53;;;9.70;99.90;;;;;;5041411;28;38805;-76
2023/10/23 00:46:57;;;;;;;10.73;7.97;;;9.70;99.90;;;;;;5046180;28;37275;-76
2023/10/23 00:49:25;;;;;;;8.73;6.60;;;9.70;99.90;;;;;;5044821;28;38448;-76
2023/10/23 00:51:52;;;;;;;11.40;8.03;;;9.60;99.90;;;;;;5043778;28;38119;-77
2023/10/23 00:54:19;;;;;;;9.13;7.40;;;9.60;99.90;;;;;;5044229;28;36791;-76
2023/10/23 00:56:46;;;;;;;10.00;6.77;;;9.60;99.90;;;;;;5046068;28;37342;-76
2023/10/23 00:59:13;;;;;;;9.70;7.43;;;9.60;99.90;;;;;;5043107;28;38644;-76
2023/10/23 01:01:53;;;;;;;8.50;7.60;;;9.60;99.90;;;;;;5607466;22;37466;-77
2023/10/23 01:04:20;;;;;;;8.27;7.20;;;9.50;99.90;;;;;;5047008;28;36248;-79
2023/10/23 01:06:46;;;;;;;9.13;7.37;;;9.50;99.90;;;;;;5064381;28;36544;-77
2023/10/23 01:09:12;;;;;;;7.80;7.00;;;9.50;99.90;;;;;;5067710;28;38236;-77
2023/10/23 01:11:39;;;;;;;8.67;7.77;;;9.40;99.90;;;;;;5067064;28;37388;-78
2023/10/23 01:14:05;;;;;;;9.00;7.23;;;9.40;99.90;;;;;;5067221;27;38228;-77
2023/10/23 01:16:31;;;;;;;10.30;8.20;;;9.40;99.90;;;;;;5069376;28;36067;-78
2023/10/23 01:18:57;;;;;;;8.17;7.17;;;9.40;99.90;;;;;;5064398;28;39051;-78
2023/10/23 01:21:23;;;;;;;9.60;7.60;;;9.30;99.90;;;;;;5068197;28;38641;-77
2023/10/23 01:23:50;;;;;;;9.17;7.33;;;9.30;99.90;;;;;;5067201;28;37307;-77
2023/10/23 01:26:16;;;;;;;8.33;7.30;;;9.30;99.90;;;;;;5068607;28;39072;-78
2023/10/23 01:28:43;;;;;;;9.00;7.40;;;9.30;99.90;;;;;;5065317;28;39776;-77
2023/10/23 01:31:09;;;;;;;10.73;7.67;;;9.20;99.90;;;;;;5067856;27;38554;-77
2023/10/23 01:33:36;;;;;;;10.70;7.40;;;9.20;99.90;;;;;;5063550;28;36867;-77
2023/10/23 01:36:02;;;;;;;9.40;7.83;;;9.20;99.90;;;;;;5064836;28;37739;-77
2023/10/23 01:38:28;;;;;;;9.33;7.33;;;9.10;99.90;;;;;;5057423;28;38780;-77
2023/10/23 01:40:54;;;;;;;9.53;7.73;;;9.10;99.90;;;;;;5063159;28;38029;-77
2023/10/23 01:43:20;;;;;;;10.53;7.07;;;9.10;99.90;;;;;;5061429;27;38359;-77
2023/10/23 01:45:46;;;;;;;12.47;8.40;;;9.10;99.90;;;;;;5062568;28;35973;-77
2023/10/23 01:48:12;;;;;;;8.67;7.63;;;9.00;99.90;;;;;;5061299;28;38327;-77
2023/10/23 01:50:39;;;;;;;9.73;8.60;;;8.90;99.90;;;;;;5059977;28;37285;-77
2023/10/23 01:53:05;;;;;;;10.27;8.20;;;9.00;99.90;;;;;;5058751;28;36850;-77
2023/10/23 01:55:31;;;;;;;10.53;8.53;;;9.00;99.90;;;;;;5056971;28;35880;-76
2023/10/23 01:57:57;;;;;;;10.10;8.27;;;9.00;99.90;;;;;;5068412;28;38709;-77
2023/10/23 02:00:24;;;;;;;10.33;9.33;;;9.00;99.90;;;;;;5067880;28;39443;-75
2023/10/23 02:02:50;;;;;;;11.60;10.27;;;8.90;99.90;;;;;;5063928;28;37034;-76
2023/10/23 02:05:17;;;;;;;11.40;10.20;;;8.90;99.90;;;;;;5060803;28;37569;-76
2023/10/23 02:07:43;;;;;;;14.37;10.43;;;8.90;99.90;;;;;;5065180;28;38664;-77
2023/10/23 02:10:09;;;;;;;13.83;10.83;;;8.90;99.90;;;;;;5063903;28;40046;-78
2023/10/23 02:12:35;;;;;;;12.83;11.43;;;8.90;99.90;;;;;;5061657;28;38603;-77
2023/10/23 02:15:03;;;;;;;14.07;11.50;;;8.90;99.90;;;;;;5060951;28;36129;-77
2023/10/23 02:17:34;;;;;;;16.20;10.80;;;9.00;99.90;;;;;;5059292;28;38974;-77
2023/10/23 02:20:01;;;;;;;14.63;11.33;;;9.00;99.90;;;;;;5061991;28;38516;-77
2023/10/23 02:22:27;;;;;;;17.27;12.53;;;9.10;99.90;;;;;;5064323;28;37725;-77
2023/10/23 02:24:53;;;;;;;15.60;12.17;;;9.20;99.90;;;;;;5065640;28;36026;-77
2023/10/23 02:27:19;;;;;;;22.60;15.60;;;9.30;99.90;;;;;;5063577;28;39059;-77
2023/10/23 02:29:46;;;;;;;91.77;21.63;;;9.40;99.90;;;;;;5065500;28;37862;-77
2023/10/23 02:32:12;;;;;;;87.13;27.30;;;9.80;99.90;;;;;;5064026;28;38166;-77
2023/10/23 02:34:38;;;;;;;31.57;24.43;;;10.30;99.90;;;;;;5067254;28;37283;-77
2023/10/23 02:37:04;;;;;;;46.63;23.90;;;10.40;99.90;;;;;;5059588;28;37522;-77
2023/10/23 02:39:30;;;;;;;145.80;30.70;;;10.40;99.90;;;;;;5061938;28;37757;-77
2023/10/23 02:41:56;;;;;;;84.43;28.90;;;10.50;99.90;;;;;;5064298;28;39503;-77
2023/10/23 02:44:23;;;;;;;67.97;28.97;;;10.60;99.90;;;;;;5064497;28;37006;-77
2023/10/23 02:46:49;;;;;;;73.17;30.63;;;10.60;99.90;;;;;;5066589;28;38617;-75
2023/10/23 02:49:16;;;;;;;43.72;29.75;;;10.60;99.90;;;;;;5064061;27;40242;-78
2023/10/23 02:51:42;;;;;;;84.68;29.17;;;10.70;99.90;;;;;;5065919;28;39928;-75
2023/10/23 02:54:08;;;;;;;115.30;33.25;;;10.70;99.90;;;;;;5064837;28;37186;-77
2023/10/23 02:56:34;;;;;;;197.10;36.33;;;10.70;99.90;;;;;;5066741;28;38769;-77
2023/10/23 02:59:00;;;;;;;83.68;32.15;;;10.70;99.90;;;;;;5063681;28;38665;-78
2023/10/23 03:01:27;;;;;;;122.80;34.00;;;10.80;99.90;;;;;;5064730;28;47504;-78
2023/10/23 03:03:53;;;;;;;176.02;38.17;;;10.70;99.90;;;;;;5068881;28;36418;-78
2023/10/23 03:06:19;;;;;;;294.20;41.00;;;10.80;99.90;;;;;;5072941;28;39199;-78
2023/10/23 03:08:45;;;;;;;309.43;44.93;;;10.80;99.90;;;;;;5074189;28;39834;-78
2023/10/23 03:11:11;;;;;;;201.83;39.53;;;10.90;99.90;;;;;;5068047;28;41111;-78
2023/10/23 03:13:37;;;;;;;112.20;36.20;;;10.90;99.90;;;;;;5064918;28;38141;-79
2023/10/23 03:16:04;;;;;;;41.88;34.67;;;10.90;99.90;;;;;;5071451;28;39412;-77
2023/10/23 03:18:30;;;;;;;45.42;33.67;;;10.90;99.90;;;;;;5067205;28;38457;-78
2023/10/23 03:21:00;;;;;;;66.53;36.35;;;11.00;99.90;;;;;;5067886;28;38314;-77
2023/10/23 03:23:28;;;;;;;147.77;42.15;;;11.00;99.90;;;;;;5067990;28;36159;-77
2023/10/23 03:25:54;;;;;;;84.22;38.78;;;11.00;99.90;;;;;;5075597;28;38902;-79
2023/10/23 03:28:20;;;;;;;80.53;39.83;;;11.00;99.90;;;;;;5060722;28;37794;-79
2023/10/23 03:30:46;;;;;;;56.72;39.53;;;11.10;99.90;;;;;;5065696;28;37251;-77
2023/10/23 03:33:12;;;;;;;47.20;37.30;;;11.10;99.90;;;;;;5068028;28;37284;-76
2023/10/23 03:35:42;;;;;;;94.00;39.97;;;11.20;99.90;;;;;;5068703;28;39127;-77
2023/10/23 03:38:08;;;;;;;48.55;37.60;;;11.10;99.90;;;;;;5064555;28;38863;-77
2023/10/23 03:40:34;;;;;;;62.15;41.78;;;11.20;99.90;;;;;;5066192;28;37332;-77
2023/10/23 03:43:00;;;;;;;80.72;44.05;;;11.20;99.90;;;;;;5064881;28;37801;-78
2023/10/23 03:45:27;;;;;;;74.13;44.33;;;11.20;99.90;;;;;;5064499;28;38686;-77
2023/10/23 03:47:53;;;;;;;106.82;47.67;;;11.20;99.90;;;;;;5072906;28;39381;-78
2023/10/23 03:50:19;;;;;;;90.25;49.03;;;11.30;99.90;;;;;;5068690;28;38824;-77
2023/10/23 03:52:45;;;;;;;99.07;47.35;;;11.30;99.90;;;;;;5067795;28;36821;-77
2023/10/23 03:55:11;;;;;;;72.43;45.38;;;11.30;99.90;;;;;;5072092;27;37561;-77
2023/10/23 03:57:37;;;;;;;68.03;44.08;;;11.30;99.90;;;;;;5069590;28;38181;-77
2023/10/23 04:00:05;;;;;;;63.47;44.22;;;11.30;99.90;;;;;;5072730;28;37282;-77
2023/10/23 04:02:31;;;;;;;99.35;49.33;;;11.30;99.90;;;;;;5070538;28;37725;-77
2023/10/23 04:04:57;;;;;;;102.47;49.97;;;11.40;99.90;;;;;;5071749;28;39579;-77
2023/10/23 04:07:23;;;;;;;147.23;53.17;;;11.40;99.90;;;;;;5059163;28;37335;-77
2023/10/23 04:09:49;;;;;;;76.30;46.15;;;11.50;99.90;;;;;;5064689;28;37119;-77
2023/10/23 04:12:16;;;;;;;71.68;44.90;;;11.50;99.90;;;;;;5065430;28;37769;-77
2023/10/23 04:14:45;;;;;;;103.25;44.80;;;11.40;99.90;;;;;;5068539;28;38937;-77
2023/10/23 04:17:11;;;;;;;60.25;43.05;;;11.40;99.90;;;;;;5068588;28;38919;-78
2023/10/23 04:19:38;;;;;;;76.68;45.95;;;11.40;99.90;;;;;;5063436;28;38096;-77
2023/10/23 04:22:04;;;;;;;81.57;47.13;;;11.40;99.90;;;;;;5060110;28;37784;-76
2023/10/23 04:24:30;;;;;;;60.42;42.72;;;11.40;99.90;;;;;;5074375;28;37500;-77
2023/10/23 04:26:56;;;;;;;77.75;45.67;;;11.30;99.90;;;;;;5060773;28;39818;-77
2023/10/23 04:29:22;;;;;;;73.28;42.15;;;11.40;99.90;;;;;;5073057;28;37756;-76
2023/10/23 04:31:48;;;;;;;75.65;44.40;;;11.50;99.90;;;;;;5058719;28;36228;-77
2023/10/23 04:34:14;;;;;;;74.35;44.75;;;11.50;99.90;;;;;;5054368;28;38300;-75
2023/10/23 04:36:40;;;;;;;56.13;41.47;;;11.40;99.90;;;;;;5058827;28;39409;-78
2023/10/23 04:39:07;;;;;;;90.22;44.58;;;11.40;99.90;;;;;;5057776;27;36617;-76
2023/10/23 04:41:33;;;;;;;66.90;43.10;;;11.40;99.90;;;;;;5055633;28;36410;-77
2023/10/23 04:43:59;;;;;;;64.15;43.60;;;11.30;99.90;;;;;;5064582;28;39097;-77
2023/10/23 04:46:25;;;;;;;80.18;45.00;;;11.30;99.90;;;;;;5068979;28;38898;-78
2023/10/23 04:48:51;;;;;;;65.10;43.92;;;11.30;99.90;;;;;;5072323;28;35915;-76
2023/10/23 04:51:17;;;;;;;69.85;44.00;;;11.30;99.90;;;;;;5072883;28;39262;-77
2023/10/23 04:53:43;;;;;;;61.92;43.10;;;11.30;99.90;;;;;;5069707;28;38128;-77
2023/10/23 04:56:09;;;;;;;77.15;43.42;;;11.30;99.90;;;;;;5066066;27;38563;-77
2023/10/23 04:58:38;;;;;;;59.55;43.80;;;11.30;99.90;;;;;;5068889;28;38633;-77
2023/10/23 05:01:04;;;;;;;55.70;40.92;;;11.30;99.90;;;;;;5063229;27;37996;-77
2023/10/23 05:03:31;;;;;;;57.22;42.15;;;11.30;99.90;;;;;;5065387;28;39347;-77
2023/10/23 05:05:57;;;;;;;75.10;41.20;;;11.40;99.90;;;;;;5076018;27;39311;-76
2023/10/23 05:08:24;;;;;;;130.32;45.25;;;11.30;99.90;;;;;;5071996;28;37686;-77
2023/10/23 05:10:50;;;;;;;91.15;39.35;;;11.30;99.90;;;;;;5069194;28;36485;-77
2023/10/23 05:13:16;;;;;;;74.63;41.15;;;11.20;99.90;;;;;;5062666;28;37460;-77
2023/10/23 05:15:42;;;;;;;69.38;37.05;;;11.20;99.90;;;;;;5061178;27;40142;-77
2023/10/23 05:18:08;;;;;;;176.23;44.58;;;11.20;99.90;;;;;;5062869;28;38138;-77
2023/10/23 05:20:34;;;;;;;124.70;42.33;;;11.30;99.90;;;;;;5062810;28;36841;-76
2023/10/23 05:23:03;;;;;;;56.22;38.38;;;11.40;99.90;;;;;;5063746;28;39565;-77
2023/10/23 05:25:29;;;;;;;48.30;34.63;;;11.40;99.90;;;;;;5061722;28;47354;-76
2023/10/23 05:27:55;;;;;;;69.50;36.53;;;11.30;99.90;;;;;;5054282;28;37480;-77
2023/10/23 05:30:21;;;;;;;59.25;37.30;;;11.10;99.90;;;;;;5056464;28;36061;-76
2023/10/23 05:32:47;;;;;;;482.75;58.97;;;11.10;99.90;;;;;;5060175;27;38732;-77
2023/10/23 05:35:13;;;;;;;99.30;38.30;;;11.20;99.90;;;;;;5065925;28;38460;-79
2023/10/23 05:37:39;;;;;;;136.05;38.45;;;11.20;99.90;;;;;;5062852;28;38042;-79
2023/10/23 05:40:06;;;;;;;241.30;45.50;;;11.10;99.90;;;;;;5071272;28;36917;-76
2023/10/23 05:42:32;;;;;;;70.47;36.05;;;11.20;99.90;;;;;;5056161;28;39530;-77
2023/10/23 05:45:00;;;;;;;56.47;35.85;;;11.10;99.90;;;;;;5066086;28;38885;-77
2023/10/23 05:47:26;;;;;;;50.03;33.30;;;11.10;99.90;;;;;;5060332;28;37379;-77
2023/10/23 05:49:52;;;;;;;187.70;42.10;;;11.20;99.90;;;;;;5058789;28;35188;-78
2023/10/23 05:52:19;;;;;;;158.48;43.58;;;11.10;99.90;;;;;;5056119;28;37611;-78
2023/10/23 05:54:45;;;;;;;112.00;40.38;;;11.20;99.90;;;;;;5057657;28;38705;-77
2023/10/23 05:57:11;;;;;;;62.65;37.78;;;11.20;99.90;;;;;;5065560;28;37220;-77
2023/10/23 05:59:37;;;;;;;88.85;41.08;;;11.10;99.90;;;;;;5056509;28;37232;-77
2023/10/23 06:02:03;;;;;;;59.80;39.35;;;11.00;99.90;;;;;;5064565;28;38627;-79
2023/10/23 06:04:29;;;;;;;107.68;43.58;;;11.00;99.90;;;;;;5056692;28;38691;-77
2023/10/23 06:06:55;;;;;;;62.47;39.53;;;10.90;99.90;;;;;;5063774;28;39312;-78
2023/10/23 06:09:21;;;;;;;164.90;45.78;;;10.90;99.90;;;;;;5054181;28;36120;-78
2023/10/23 06:11:47;;;;;;;268.38;51.78;;;11.00;99.90;;;;;;5060116;28;41609;-78
2023/10/23 06:14:14;;;;;;;247.00;51.28;;;11.10;99.90;;;;;;5064207;28;38864;-78
2023/10/23 06:16:40;;;;;;;153.88;42.47;;;11.10;99.90;;;;;;5066103;28;37232;-78
2023/10/23 06:19:06;;;;;;;74.32;40.83;;;11.10;99.90;;;;;;5057723;27;37395;-78
2023/10/23 06:21:32;;;;;;;192.60;46.53;;;11.00;99.90;;;;;;5058127;28;38267;-78
2023/10/23 06:23:58;;;;;;;82.28;41.78;;;11.00;99.90;;;;;;5058234;28;38480;-78
2023/10/23 06:26:24;;;;;;;180.05;43.65;;;11.00;99.90;;;;;;5055617;27;38187;-78
2023/10/23 06:28:51;;;;;;;93.00;39.63;;;11.00;99.90;;;;;;5055350;28;36484;-78
2023/10/23 06:31:17;;;;;;;83.90;39.03;;;11.00;99.90;;;;;;5061723;28;38026;-77
2023/10/23 06:33:43;;;;;;;125.97;40.83;;;10.90;99.90;;;;;;5062464;28;37707;-77
2023/10/23 06:36:09;;;;;;;62.63;36.05;;;10.90;99.90;;;;;;5069044;28;37310;-77
2023/10/23 06:38:36;;;;;;;55.22;35.55;;;10.90;99.90;;;;;;5062923;28;36064;-77
2023/10/23 06:41:06;;;;;;;73.88;38.22;;;10.90;99.90;;;;;;5063753;28;37721;-76
2023/10/23 06:43:34;;;;;;;105.72;38.78;;;10.90;99.90;;;;;;5057590;28;39219;-77
2023/10/23 06:46:00;;;;;;;71.18;40.03;;;10.80;99.90;;;;;;5061581;28;39687;-77
2023/10/23 06:48:26;;;;;;;68.63;39.27;;;10.80;99.90;;;;;;5062486;28;37605;-77
2023/10/23 06:50:52;;;;;;;113.05;41.03;;;10.90;99.90;;;;;;5061486;28;38053;-77
2023/10/23 06:53:18;;;;;;;123.10;42.60;;;10.90;99.90;;;;;;5060646;28;39718;-77
2023/10/23 06:55:52;;;;;;;117.22;47.53;;;10.90;99.90;;;;;;5059816;28;38019;-77
2023/10/23 06:58:19;;;;;;;116.07;44.22;;;11.00;99.90;;;;;;5072640;28;36403;-77
2023/10/23 07:00:46;;;;;;;115.20;47.33;;;11.00;99.90;;;;;;5061408;28;38885;-77
2023/10/23 07:03:13;;;;;;;124.25;49.00;;;11.10;99.90;;;;;;5050057;28;37833;-77
2023/10/23 07:05:43;;;;;;;309.63;61.40;;;11.10;99.90;;;;;;5060458;28;38744;-76
2023/10/23 07:08:09;;;;;;;78.55;43.45;;;11.20;99.90;;;;;;5061077;28;36624;-76
2023/10/23 07:10:36;;;;;;;117.68;48.78;;;11.10;99.90;;;;;;5069433;28;39237;-77
2023/10/23 07:13:02;;;;;;;150.05;48.15;;;11.20;99.90;;;;;;5080108;27;38471;-77
2023/10/23 07:15:33;;;;;;;76.25;42.65;;;11.20;99.90;;;;;;5090988;27;39379;-80
2023/10/23 07:18:02;;;;;;;73.38;40.72;;;11.10;99.90;;;;;;5078926;28;36257;-80
2023/10/23 07:20:28;;;;;;;123.45;42.60;;;11.00;99.90;;;;;;5080471;28;47306;-79
2023/10/23 07:22:54;;;;;;;117.32;43.58;;;11.10;99.90;;;;;;5085307;28;39994;-79
2023/10/23 07:25:21;;;;;;;75.50;40.85;;;11.00;99.90;;;;;;5079445;27;38744;-80
2023/10/23 07:27:48;;;;;;;79.82;40.55;;;11.00;99.90;;;;;;5077615;28;36807;-80
2023/10/23 07:30:14;;;;;;;63.78;40.33;;;11.10;99.90;;;;;;5087380;27;38801;-79
2023/10/23 07:32:40;;;;;;;210.30;45.45;;;11.10;99.90;;;;;;5078915;28;37988;-79
2023/10/23 07:35:10;;;;;;;142.00;42.47;;;11.10;99.90;;;;;;5065826;27;37393;-78
2023/10/23 07:37:37;;;;;;;169.52;41.22;;;11.10;99.90;;;;;;5066019;28;36869;-79
2023/10/23 07:40:07;;;;;;;63.63;34.70;;;11.00;99.90;;;;;;5070666;27;38595;-79
2023/10/23 07:42:33;;;;;;;102.45;34.78;;;11.00;99.90;;;;;;5067838;28;47405;-79
2023/10/23 07:45:04;;;;;;;88.95;35.13;;;11.00;99.90;;;;;;5074078;28;37563;-79
2023/10/23 07:47:30;;;;;;;76.35;33.38;;;11.10;99.90;;;;;;5065467;28;37432;-78
2023/10/23 07:49:56;;;;;;;46.78;32.25;;;11.00;99.90;;;;;;5063527;27;37455;-78
2023/10/23 07:52:23;;;;;;;73.88;31.27;;;11.00;99.90;;;;;;5074477;28;38583;-79
2023/10/23 07:54:49;;;;;;;126.85;37.58;;;11.10;99.90;;;;;;5071983;28;37606;-79
2023/10/23 07:57:15;;;;;;;73.47;33.63;;;11.10;99.90;;;;;;5072024;28;37168;-79
2023/10/23 07:59:41;;;;;;;57.50;31.88;;;11.00;99.90;;;;;;5070970;28;38692;-78
2023/10/23 08:02:07;;;;;;;48.53;31.92;;;11.00;99.90;;;;;;5057663;28;38617;-78
2023/10/23 08:04:34;;;;;;;56.22;34.63;;;11.00;99.90;;;;;;5064789;28;38740;-78
2023/10/23 08:07:03;;;;;;;82.95;34.60;;;11.00;99.90;;;;;;5063782;28;36921;-77
2023/10/23 08:09:29;;;;;;;53.95;32.75;;;11.10;99.90;;;;;;5066424;28;47086;-77
2023/10/23 08:11:55;;;;;;;57.42;32.70;;;11.10;99.90;;;;;;5062085;28;38148;-78
2023/10/23 08:14:21;;;;;;;82.10;34.20;;;11.10;99.90;;;;;;5059806;28;37943;-78
2023/10/23 08:16:51;;;;;;;58.20;34.20;;;11.10;99.90;;;;;;5057929;28;36992;-78
2023/10/23 08:19:19;;;;;;;59.40;32.88;;;11.10;99.90;;;;;;5071160;28;37569;-77
2023/10/23 08:21:45;;;;;;;69.93;33.97;;;11.10;99.90;;;;;;5063922;28;38590;-77
2023/10/23 08:24:11;;;;;;;140.27;38.20;;;11.10;99.90;;;;;;5078056;28;37375;-77
2023/10/23 08:26:39;;;;;;;80.55;32.50;;;11.20;99.90;;;;;;5066156;28;36504;-77
2023/10/23 08:29:05;;;;;;;59.47;28.95;;;11.20;99.90;;;;;;5070891;28;38865;-77
2023/10/23 08:31:31;;;;;;;72.97;29.55;;;11.00;99.90;;;;;;5067996;28;38742;-76
2023/10/23 08:33:57;;;;;;;93.25;29.33;;;11.00;99.90;;;;;;5062870;28;38399;-76
2023/10/23 08:36:23;;;;;;;37.28;26.40;;;10.90;99.90;;;;;;5059326;28;36096;-77
2023/10/23 08:38:49;;;;;;;39.58;26.25;;;11.00;99.90;;;;;;5064582;28;39058;-77
2023/10/23 08:41:15;;;;;;;68.18;30.92;;;11.00;99.90;;;;;;5067399;28;39230;-77
2023/10/23 08:43:42;;;;;;;41.63;27.08;;;11.10;99.90;;;;;;5068933;28;37805;-76
2023/10/23 08:46:08;;;;;;;39.25;26.58;;;11.20;99.90;;;;;;5068780;28;36715;-77
2023/10/23 08:48:36;;;;;;;36.10;26.20;;;11.30;99.90;;;;;;5066099;28;37652;-77
2023/10/23 08:51:03;;;;;;;46.78;27.15;;;11.20;99.90;;;;;;5059495;28;38105;-76
2023/10/23 08:53:36;;;;;;;57.22;28.52;;;11.30;99.90;;;;;;5068729;28;37615;-77
2023/10/23 08:56:10;;;;;;;50.58;28.52;;;11.30;99.90;;;;;;5070550;28;37177;-76
2023/10/23 08:58:37;;;;;;;46.20;29.48;;;11.10;99.90;;;;;;5067107;28;38872;-76
2023/10/23 09:01:03;;;;;;;58.13;31.55;;;11.30;99.90;;;;;;5068337;28;38552;-76
2023/10/23 09:03:32;;;;;;;41.95;29.10;;;11.30;99.90;;;;;;5067996;28;39089;-77
2023/10/23 09:05:59;;;;;;;48.22;30.38;;;11.30;99.90;;;;;;5072340;28;37768;-77
2023/10/23 09:08:30;;;;;;;54.75;33.08;;;11.40;99.90;;;;;;5067333;28;38581;-77
2023/10/23 09:11:04;;;;;;;60.35;35.22;;;11.50;99.90;;;;;;5066460;28;37786;-76
2023/10/23 09:13:36;;;;;;;50.72;32.42;;;11.50;99.90;;;;;;5065712;28;47171;-76
2023/10/23 09:16:06;;;;;;;65.63;36.92;;;11.50;99.90;;;;;;5063807;28;36299;-76
2023/10/23 09:18:33;;;;;;;60.45;35.28;;;11.50;99.90;;;;;;5066860;28;39073;-76
2023/10/23 09:21:01;;;;;;;65.82;37.92;;;11.40;99.90;;;;;;5066513;28;39460;-77
2023/10/23 09:23:29;;;;;;;69.43;40.30;;;11.50;99.90;;;;;;5063895;28;36773;-77
2023/10/23 09:25:58;;;;;;;86.10;42.80;;;11.60;99.90;;;;;;5063903;28;37636;-77
2023/10/23 09:28:28;;;;;;;102.95;46.58;;;11.50;99.90;;;;;;5069533;28;38719;-77
2023/10/23 09:30:54;;;;;;;99.75;47.72;;;11.60;99.90;;;;;;5067773;28;39120;-77
2023/10/23 09:33:21;;;;;;;100.28;45.55;;;11.60;99.90;;;;;;5065337;28;39396;-77
2023/10/23 09:35:48;;;;;;;81.75;45.08;;;11.70;99.90;;;;;;5069275;28;36700;-75
2023/10/23 09:38:15;;;;;;;73.38;42.22;;;11.80;99.90;;;;;;5069371;28;38942;-75
2023/10/23 09:40:44;;;;;;;74.13;44.05;;;11.70;99.90;;;;;;5069318;28;38457;-76
2023/10/23 09:43:11;;;;;;;80.47;44.38;;;11.70;99.90;;;;;;5066039;28;39019;-76
2023/10/23 09:45:40;;;;;;;82.38;44.42;;;11.60;99.90;;;;;;5069758;28;38267;-77
2023/10/23 09:48:07;;;;;;;105.55;47.40;;;11.70;99.90;;;;;;5069296;28;38572;-77
2023/10/23 09:50:37;;;;;;;78.93;42.05;;;11.90;99.90;;;;;;5068735;28;37629;-76
2023/10/23 09:53:06;;;;;;;75.28;38.80;;;11.80;99.90;;;;;;5067477;28;37837;-76
2023/10/23 09:55:35;;;;;;;72.10;38.00;;;11.60;99.90;;;;;;5067255;28;36279;-77
2023/10/23 09:58:08;;;;;;;71.55;37.40;;;11.60;99.90;;;;;;5063139;28;37700;-77
2023/10/23 10:00:37;;;;;;;76.35;35.47;;;11.60;99.90;;;;;;5067837;28;47473;-77
2023/10/23 10:03:10;;;;;;;67.80;35.55;;;11.60;99.90;;;;;;5060810;28;37446;-76
2023/10/23 10:05:46;;;;;;;70.03;34.97;;;11.70;99.90;;;;;;5065683;28;36689;-76
2023/10/23 10:08:16;;;;;;;64.05;34.33;;;11.70;99.90;;;;;;5066297;28;39346;-76
2023/10/23 10:10:43;;;;;;;66.90;34.20;;;11.80;99.90;;;;;;5066407;28;37768;-77
2023/10/23 10:13:13;;;;;;;66.13;35.28;;;12.00;99.90;;;;;;5065518;28;37590;-77
2023/10/23 10:15:40;;;;;;;80.97;37.97;;;12.00;99.90;;;;;;5076710;27;36836;-77
2023/10/23 10:18:06;;;;;;;85.95;40.38;;;12.10;99.90;;;;;;5067805;28;39766;-76
2023/10/23 10:20:33;;;;;;;75.10;35.53;;;12.10;99.90;;;;;;5068048;28;38771;-76
2023/10/23 10:23:09;;;;;;;72.75;34.78;;;12.10;99.90;;;;;;5069315;28;38624;-76
2023/10/23 10:25:37;;;;;;;68.25;32.97;;;12.20;99.90;;;;;;5066618;28;48485;-76
2023/10/23 10:28:05;;;;;;;70.43;33.05;;;12.30;99.90;;;;;;5067653;28;38583;-75
2023/10/23 10:30:49;;;;;;;61.30;32.63;;;12.30;99.90;;;;;;5068381;28;39398;-76
2023/10/23 10:33:22;;;;;;;65.60;31.48;;;12.50;99.90;;;;;;5062359;28;37315;-75
2023/10/23 10:36:15;;;;;;;65.18;32.13;;;12.40;99.90;;;;;;5064963;28;38018;-76
2023/10/23 10:38:42;;;;;;;56.13;28.48;;;12.50;99.90;;;;;;5059367;28;48905;-76
2023/10/23 10:41:18;;;;;;;53.75;27.73;;;12.60;99.90;;;;;;5066726;28;39352;-76
2023/10/23 10:43:51;;;;;;;50.80;26.58;;;12.80;99.90;;;;;;5065219;28;38325;-77
2023/10/23 10:46:24;;;;;;;50.40;25.85;;;12.80;99.90;;;;;;5064760;28;38703;-76
2023/10/23 10:48:52;;;;;;;67.25;28.45;;;12.90;99.90;;;;;;5059904;28;39445;-77
2023/10/23 10:51:25;;;;;;;50.65;24.73;;;13.10;99.90;;;;;;5066288;28;37434;-74
2023/10/23 10:54:06;;;;;;;58.55;25.70;;;13.00;99.90;;;;;;5063971;28;38725;-74
2023/10/23 10:56:33;;;;;;;44.40;22.30;;;13.10;99.90;;;;;;5061153;28;48151;-75
2023/10/23 10:59:00;;;;;;;34.28;21.17;;;13.30;99.90;;;;;;5057739;28;37986;-75
2023/10/23 11:01:26;;;;;;;44.67;22.25;;;13.40;99.90;;;;;;5056576;28;46463;-75
2023/10/23 11:03:53;;;;;;;32.10;19.23;;;13.20;99.90;;;;;;5055010;28;38385;-75
2023/10/23 11:06:19;;;;;;;32.58;17.88;;;13.40;99.90;;;;;;5056652;28;37466;-75
2023/10/23 11:08:48;;;;;;;33.55;18.13;;;13.50;99.90;;;;;;5053325;28;38516;-75
2023/10/23 11:11:14;;;;;;;31.35;18.63;;;13.70;99.90;;;;;;5059293;28;37807;-74
2023/10/23 11:13:40;;;;;;;27.90;16.10;;;13.80;99.90;;;;;;5059582;28;38299;-75
2023/10/23 11:16:06;;;;;;;24.83;15.40;;;13.80;99.90;;;;;;5058473;28;35895;-77
2023/10/23 11:18:33;;;;;;;24.92;15.10;;;13.90;99.90;;;;;;5065443;28;40465;-77
2023/10/23 11:21:00;;;;;;;25.67;13.93;;;14.00;99.90;;;;;;5063361;28;38700;-77
2023/10/23 11:23:30;;;;;;;23.90;13.13;;;14.00;99.90;;;;;;5055997;28;38391;-76
2023/10/23 11:25:56;;;;;;;23.35;12.70;;;14.00;99.90;;;;;;5055718;28;37029;-76
2023/10/23 11:28:23;;;;;;;27.38;12.10;;;14.10;99.90;;;;;;5061916;28;39245;-76
2023/10/23 11:30:55;;;;;;;21.20;10.80;;;14.20;99.90;;;;;;5060866;28;37746;-76
2023/10/23 11:33:21;;;;;;;19.77;10.88;;;14.30;99.90;;;;;;5063114;28;39386;-76
2023/10/23 11:35:47;;;;;;;18.30;10.15;;;14.40;99.90;;;;;;5058622;28;36614;-76
2023/10/23 11:38:18;;;;;;;23.63;10.40;;;14.50;99.90;;;;;;5061814;28;39525;-76
2023/10/23 11:40:45;;;;;;;18.65;9.43;;;14.40;99.90;;;;;;5062383;28;39566;-76
2023/10/23 11:43:16;;;;;;;21.73;8.80;;;14.30;99.90;;;;;;5062123;28;37249;-77
2023/10/23 11:45:44;;;;;;;18.90;8.27;;;14.30;99.90;;;;;;5057328;28;38107;-76
2023/10/23 11:48:14;;;;;;;16.85;8.52;;;14.40;99.90;;;;;;5065481;28;39625;-76
2023/10/23 11:50:42;;;;;;;15.55;7.63;;;14.50;99.90;;;;;;5064389;28;39527;-76
2023/10/23 11:53:08;;;;;;;14.35;7.30;;;14.50;99.90;;;;;;5055880;28;37213;-78
2023/10/23 11:55:37;;;;;;;10.32;6.28;;;14.40;99.90;;;;;;5064205;28;36839;-77
2023/10/23 11:58:04;;;;;;;11.02;6.25;;;14.50;99.90;;;;;;5060746;28;38551;-76
2023/10/23 12:00:34;;;;;;;13.68;6.30;;;14.70;99.90;;;;;;5063762;28;37568;-78
2023/10/23 12:03:01;;;;;;;12.02;6.60;;;14.70;99.90;;;;;;5060971;28;38866;-79
2023/10/23 12:05:27;;;;;;;10.80;6.40;;;14.80;99.90;;;;;;5055393;28;47116;-80
2023/10/23 12:07:55;;;;;;;12.63;6.80;;;14.80;99.90;;;;;;5081291;28;37894;-79
2023/10/23 12:10:24;;;;;;;16.75;7.35;;;14.80;99.90;;;;;;5067140;28;38939;-78
2023/10/23 12:12:53;;;;;;;19.35;7.50;;;14.90;99.90;;;;;;5067756;28;38702;-79
2023/10/23 12:15:21;;;;;;;20.05;7.78;;;14.90;99.90;;;;;;5065105;28;35994;-81
2023/10/23 12:17:47;;;;;;;15.57;7.80;;;15.00;99.90;;;;;;5069576;28;37592;-78
2023/10/23 12:20:14;;;;;;;18.35;7.68;;;15.00;99.90;;;;;;5072404;28;39809;-79
2023/10/23 12:22:45;;;;;;;15.07;6.70;;;15.00;99.90;;;;;;5071725;28;38771;-78
2023/10/23 12:25:13;;;;;;;16.55;6.80;;;14.90;99.90;;;;;;5071715;28;37314;-78
2023/10/23 12:27:40;;;;;;;15.77;7.18;;;14.80;99.90;;;;;;5071450;28;38540;-77
2023/10/23 12:30:08;;;;;;;14.30;7.03;;;14.70;99.90;;;;;;5065994;28;37672;-78